Terminal Aerodrome Forecast
Issued by NWS

Home | Current Version | Previous Version | Text Only | Print | Product List | Glossary On
Versions: 1 2 3 4 5 6 7 8 9 10 11 12 13 14
585
FTUS43 KEAX 291120
TAFSTJ
TAF
KSTJ 291120Z 2912/3012 07015KT 5SM -RA BR BKN015
      TEMPO 2912/2916 3SM RA OVC008
     FM291800 05012KT 5SM BR VCTS OVC008CB
     FM300100 02007KT 4SM BR VCSH OVC005=

USA.gov is the U.S. government's official web portal to all federal, state and local government web resources and services.